Time;durP1;ratioP1;P1;durP2;ratioP2;P2;SDS_P1;SDS_P2;PMS_P1;PMS_P2;Temp;Humidity;BMP_temperature;BMP_pressure;BME280_temperature;BME280_humidity;BME280_pressure;Samples;Min_cycle;Max_cycle;Signal;HPM_P1;HPM_P2
2023/06/17 00:00:32;;;;;;;1.30;1.30;;;;;;;16.39;100.00;63694.09;5083851;28;20227;-74
2023/06/17 00:03:00;;;;;;;1.20;1.20;;;;;;;16.28;100.00;63677.50;5091212;28;20195;-77
2023/06/17 00:05:27;;;;;;;2.42;1.65;;;;;;;16.32;100.00;63684.25;5087953;28;20226;-76
2023/06/17 00:07:55;;;;;;;1.20;1.20;;;;;;;16.30;100.00;63682.16;5084367;28;20360;-78
2023/06/17 00:10:22;;;;;;;2.40;1.42;;;;;;;16.24;100.00;63678.50;5081951;28;20247;-76
2023/06/17 00:12:50;;;;;;;1.77;1.20;;;;;;;16.22;100.00;63673.84;5086922;28;20207;-77
2023/06/17 00:15:18;;;;;;;1.20;1.13;;;;;;;16.31;100.00;63688.38;5086450;28;20255;-76
2023/06/17 00:17:47;;;;;;;2.42;1.40;;;;;;;16.05;100.00;63659.78;5087250;28;20207;-76
2023/06/17 00:20:14;;;;;;;1.27;1.27;;;;;;;16.10;100.00;63670.13;5086732;28;20204;-76
2023/06/17 00:22:44;;;;;;;1.50;1.40;;;;;;;16.15;100.00;63669.66;5085538;28;20196;-77
2023/06/17 00:25:13;;;;;;;2.03;1.25;;;;;;;16.11;100.00;63666.03;5085651;28;20207;-78
2023/06/17 00:27:41;;;;;;;1.98;1.27;;;;;;;16.12;100.00;63667.06;5069770;28;20232;-77
2023/06/17 00:30:10;;;;;;;1.27;1.17;;;;;;;16.16;100.00;63670.69;5067171;28;20357;-76
2023/06/17 00:32:39;;;;;;;1.45;1.35;;;;;;;16.12;100.00;63669.09;5068238;28;20204;-79
2023/06/17 00:35:07;;;;;;;0.90;0.90;;;;;;;16.14;100.00;63666.03;5067005;28;20197;-77
2023/06/17 00:37:34;;;;;;;1.33;1.05;;;;;;;16.06;100.00;63660.31;5065698;28;20208;-75
2023/06/17 00:40:01;;;;;;;0.93;0.93;;;;;;;15.85;100.00;63641.56;5065003;28;20497;-75
2023/06/17 00:42:29;;;;;;;1.00;1.00;;;;;;;15.91;100.00;63647.78;5065345;28;20193;-76
2023/06/17 00:44:56;;;;;;;1.15;1.15;;;;;;;15.83;100.00;63636.91;5070021;28;20193;-76
2023/06/17 00:47:23;;;;;;;1.10;1.10;;;;;;;15.79;100.00;63627.09;5067083;28;20228;-76
2023/06/17 00:49:53;;;;;;;1.10;1.10;;;;;;;15.66;100.00;63614.09;5074444;28;20200;-78
2023/06/17 00:52:20;;;;;;;3.22;1.20;;;;;;;15.52;100.00;63602.09;5084650;28;20539;-75
2023/06/17 00:54:48;;;;;;;1.50;1.50;;;;;;;15.41;100.00;63595.78;5084421;28;20226;-77
2023/06/17 00:57:15;;;;;;;1.23;1.20;;;;;;;15.46;100.00;63595.84;5066673;28;20279;-76
2023/06/17 00:59:45;;;;;;;1.90;1.75;;;;;;;15.46;100.00;63595.34;5070127;28;20216;-77
2023/06/17 01:02:13;;;;;;;1.60;1.50;;;;;;;15.54;100.00;63601.09;5064997;28;20220;-76
2023/06/17 01:04:42;;;;;;;1.10;1.10;;;;;;;15.49;100.00;63606.69;5064972;28;20196;-77
2023/06/17 01:07:23;;;;;;;1.63;1.52;;;;;;;15.53;100.00;63607.75;5063574;28;20477;-75
2023/06/17 01:09:56;;;;;;;1.30;1.30;;;;;;;15.53;100.00;63602.63;5066052;28;20207;-76
2023/06/17 01:12:25;;;;;;;1.23;1.23;;;;;;;15.49;100.00;63604.13;5066979;28;20205;-75
2023/06/17 01:14:57;;;;;;;1.75;1.75;;;;;;;15.47;100.00;63593.81;5065844;28;20239;-76
2023/06/17 01:17:25;;;;;;;1.42;1.42;;;;;;;15.48;100.00;63600.00;5063783;28;20200;-78
2023/06/17 01:19:54;;;;;;;1.88;1.77;;;;;;;15.47;100.00;63596.38;5064978;28;20204;-76
2023/06/17 01:22:22;;;;;;;1.52;1.52;;;;;;;15.52;100.00;63604.66;5080555;28;20196;-76
2023/06/17 01:24:51;;;;;;;1.40;1.40;;;;;;;15.55;100.00;63610.34;5084604;28;20207;-76
2023/06/17 01:27:18;;;;;;;2.85;1.70;;;;;;;15.57;100.00;63604.22;5086270;28;20227;-76
2023/06/17 01:29:48;;;;;;;1.90;1.80;;;;;;;15.58;100.00;63608.34;5084926;28;20256;-74
2023/06/17 01:32:15;;;;;;;1.83;1.73;;;;;;;15.63;100.00;63616.13;5064232;28;20394;-77
2023/06/17 01:34:49;;;;;;;1.85;1.75;;;;;;;15.60;100.00;63604.78;5064751;28;20227;-75
2023/06/17 01:37:24;;;;;;;2.88;1.40;;;;;;;15.51;100.00;63603.63;5064358;28;20227;-77
2023/06/17 01:39:57;;;;;;;1.73;1.63;;;;;;;15.60;100.00;63612.47;5063741;28;20251;-76
2023/06/17 01:42:29;;;;;;;2.42;1.40;;;;;;;15.57;100.00;63606.78;5064871;28;20193;-78
2023/06/17 01:44:59;;;;;;;1.98;1.77;;;;;;;15.57;100.00;63606.78;5068363;28;20189;-77
2023/06/17 01:47:26;;;;;;;1.70;1.60;;;;;;;15.58;100.00;63610.91;5064227;28;20225;-75
2023/06/17 01:49:56;;;;;;;1.75;1.65;;;;;;;15.56;100.00;63603.69;5064737;28;20400;-76
2023/06/17 01:52:23;;;;;;;1.83;1.73;;;;;;;15.56;100.00;63605.75;5064985;28;20393;-76
2023/06/17 01:54:50;;;;;;;1.60;1.60;;;;;;;15.64;100.00;63614.59;5065062;28;20193;-76
2023/06/17 01:57:18;;;;;;;1.85;1.70;;;;;;;15.62;100.00;63615.06;5072907;28;20219;-76
2023/06/17 01:59:46;;;;;;;1.63;1.63;;;;;;;15.58;100.00;63605.75;5084212;28;20197;-75
2023/06/17 02:02:13;;;;;;;2.05;1.90;;;;;;;15.54;100.00;63608.78;5084273;28;20243;-77
2023/06/17 02:04:41;;;;;;;1.50;1.50;;;;;;;15.54;100.00;63603.66;5084253;28;20198;-74
2023/06/17 02:07:10;;;;;;;1.70;1.60;;;;;;;15.47;100.00;63599.47;5082190;28;20266;-75
2023/06/17 02:09:37;;;;;;;1.77;1.67;;;;;;;15.45;100.00;63597.41;5078608;28;20251;-74
2023/06/17 02:12:06;;;;;;;2.35;2.22;;;;;;;15.38;100.00;63587.00;5066755;28;20244;-74
2023/06/17 02:14:34;;;;;;;1.88;1.80;;;;;;;15.27;100.00;63575.59;5064146;28;20273;-74
2023/06/17 02:17:02;;;;;;;1.90;1.80;;;;;;;15.31;100.00;63584.84;5063681;28;20453;-76
2023/06/17 02:19:31;;;;;;;3.35;2.30;;;;;;;15.38;100.00;63587.53;5064735;28;20201;-75
2023/06/17 02:21:59;;;;;;;1.67;1.67;;;;;;;15.40;100.00;63591.69;5066699;28;20208;-77
2023/06/17 02:24:27;;;;;;;2.50;2.30;;;;;;;15.42;100.00;63593.75;5074408;28;20548;-76
2023/06/17 02:26:55;;;;;;;3.70;1.83;;;;;;;15.37;100.00;63583.41;5089246;28;20216;-76
2023/06/17 02:29:22;;;;;;;2.80;1.98;;;;;;;15.32;100.00;63581.31;5089478;28;20196;-76
2023/06/17 02:31:51;;;;;;;1.80;1.70;;;;;;;15.25;100.00;63573.50;5087819;28;20216;-75
2023/06/17 02:34:19;;;;;;;2.08;1.85;;;;;;;15.32;100.00;63583.34;5072833;28;20207;-76
2023/06/17 02:36:46;;;;;;;1.95;1.85;;;;;;;15.34;100.00;63585.94;5067971;28;20419;-76
2023/06/17 02:39:13;;;;;;;2.40;2.20;;;;;;;15.36;100.00;63584.94;5068844;28;20193;-75
2023/06/17 02:41:41;;;;;;;2.08;1.98;;;;;;;15.24;100.00;63572.97;5066246;28;20290;-76
2023/06/17 02:44:08;;;;;;;2.08;1.95;;;;;;;15.23;100.00;63568.84;5067291;28;20208;-77
2023/06/17 02:46:35;;;;;;;2.40;2.30;;;;;;;15.28;100.00;63577.13;5069501;28;20227;-77
2023/06/17 02:49:04;;;;;;;2.40;2.20;;;;;;;15.28;100.00;63582.28;5067359;28;20297;-76
2023/06/17 02:51:32;;;;;;;2.25;2.15;;;;;;;15.25;100.00;63573.50;5067122;28;20263;-77
2023/06/17 02:53:59;;;;;;;1.90;1.80;;;;;;;15.12;100.00;63562.56;5072207;28;20196;-74
2023/06/17 02:56:27;;;;;;;1.83;1.73;;;;;;;14.99;100.00;63552.66;5067941;28;20277;-73
2023/06/17 02:58:54;;;;;;;2.65;2.45;;;;;;;14.96;100.00;63544.41;5066748;28;20213;-76
2023/06/17 03:01:22;;;;;;;2.40;2.30;;;;;;;15.00;100.00;63551.13;5080553;28;20437;-76
2023/06/17 03:03:49;;;;;;;2.15;2.05;;;;;;;15.04;100.00;63552.19;5086770;28;20268;-76
2023/06/17 03:06:18;;;;;;;2.33;2.13;;;;;;;14.98;100.00;63543.91;5087071;28;20208;-74
2023/06/17 03:08:46;;;;;;;2.33;2.22;;;;;;;14.95;100.00;63542.84;5087340;28;20230;-75
2023/06/17 03:11:13;;;;;;;2.28;2.13;;;;;;;14.93;100.00;63545.88;5066960;28;20229;-76
2023/06/17 03:13:40;;;;;;;2.05;1.95;;;;;;;15.00;100.00;63553.69;5066600;28;20197;-74
2023/06/17 03:16:07;;;;;;;2.28;2.08;;;;;;;14.99;100.00;63547.53;5067782;28;20225;-76
2023/06/17 03:18:34;;;;;;;2.92;2.15;;;;;;;15.06;100.00;63556.84;5068035;28;20264;-75
2023/06/17 03:21:01;;;;;;;2.20;2.00;;;;;;;14.84;100.00;63537.06;5066215;28;20538;-75
2023/06/17 03:23:30;;;;;;;3.08;2.25;;;;;;;14.89;100.00;63541.75;5069750;28;20255;-75
2023/06/17 03:25:57;;;;;;;2.05;1.95;;;;;;;14.93;100.00;63551.03;5068467;28;20222;-73
2023/06/17 03:28:24;;;;;;;2.25;2.15;;;;;;;14.90;100.00;63542.78;5076833;28;20556;-74
2023/06/17 03:30:52;;;;;;;2.10;2.00;;;;;;;14.89;100.00;63539.19;5086310;28;20544;-77
2023/06/17 03:33:19;;;;;;;2.28;2.15;;;;;;;14.94;100.00;63542.31;5088168;28;20200;-74
2023/06/17 03:35:46;;;;;;;2.13;2.03;;;;;;;15.05;100.00;63548.09;5088113;28;20216;-76
2023/06/17 03:38:13;;;;;;;2.25;2.15;;;;;;;15.08;100.00;63562.00;5067435;28;20197;-76
2023/06/17 03:40:42;;;;;;;2.00;1.90;;;;;;;15.05;100.00;63558.88;5066340;28;20213;-76
2023/06/17 03:43:10;;;;;;;2.33;2.13;;;;;;;15.01;100.00;63547.03;5071934;28;20384;-75
2023/06/17 03:45:36;;;;;;;1.83;1.77;;;;;;;15.04;100.00;63552.72;5081144;28;20225;-76
2023/06/17 03:48:04;;;;;;;1.85;1.80;;;;;;;14.99;100.00;63550.09;5087127;28;20278;-76
2023/06/17 03:50:32;;;;;;;2.42;2.10;;;;;;;15.04;100.00;63552.19;5089152;28;20218;-78
2023/06/17 03:52:59;;;;;;;2.17;2.08;;;;;;;15.01;100.00;63549.09;5084466;28;20219;-77
2023/06/17 03:55:27;;;;;;;2.00;1.90;;;;;;;14.99;100.00;63541.88;5083362;28;20242;-78
2023/06/17 03:57:55;;;;;;;2.55;2.13;;;;;;;15.01;100.00;63547.03;5087049;28;20200;-75
2023/06/17 04:00:22;;;;;;;2.20;2.10;;;;;;;15.03;100.00;63551.16;5085517;28;20220;-77
2023/06/17 04:02:49;;;;;;;2.80;2.22;;;;;;;15.02;100.00;63555.25;5087935;28;20216;-75
2023/06/17 04:05:17;;;;;;;2.75;2.20;;;;;;;15.07;100.00;63558.41;5088368;28;20416;-75
2023/06/17 04:07:46;;;;;;;3.10;2.15;;;;;;;15.00;100.00;63550.59;5086708;28;20286;-76
2023/06/17 04:10:13;;;;;;;2.95;1.80;;;;;;;14.99;100.00;63547.00;5072711;28;20201;-77
2023/06/17 04:12:42;;;;;;;2.47;2.28;;;;;;;15.08;100.00;63554.31;5066095;28;20189;-76
2023/06/17 04:15:11;;;;;;;2.22;2.13;;;;;;;15.07;100.00;63555.31;5067419;28;20211;-78
2023/06/17 04:17:38;;;;;;;2.30;2.20;;;;;;;15.10;100.00;63558.44;5073954;28;20201;-77
2023/06/17 04:20:10;;;;;;;2.17;2.08;;;;;;;15.13;100.00;63563.59;5067496;28;20260;-77
2023/06/17 04:22:38;;;;;;;2.00;1.90;;;;;;;15.15;100.00;63568.78;5065682;28;20439;-77
2023/06/17 04:25:08;;;;;;;2.33;2.22;;;;;;;15.07;100.00;63550.72;5068473;28;20215;-77
2023/06/17 04:27:36;;;;;;;1.70;1.70;;;;;;;15.06;100.00;63552.22;5065523;28;20223;-76
2023/06/17 04:30:03;;;;;;;1.58;1.58;;;;;;;15.16;100.00;63559.00;5066368;28;20192;-78
2023/06/17 04:32:34;;;;;;;2.38;2.28;;;;;;;15.23;100.00;63571.41;5071238;28;20268;-75
2023/06/17 04:35:03;;;;;;;2.53;1.90;;;;;;;15.24;100.00;63572.97;5065952;28;20299;-77
2023/06/17 04:37:32;;;;;;;1.58;1.48;;;;;;;15.15;100.00;63568.25;5066028;28;20204;-79
2023/06/17 04:39:59;;;;;;;3.85;2.10;;;;;;;15.12;100.00;63557.44;5068608;28;20200;-77
2023/06/17 04:42:27;;;;;;;2.38;2.28;;;;;;;15.15;100.00;63560.56;5082199;28;20492;-77
2023/06/17 04:44:57;;;;;;;21.40;2.30;;;;;;;15.21;100.00;63569.88;5090755;28;20260;-77
2023/06/17 04:47:24;;;;;;;4.70;1.58;;;;;;;15.22;100.00;63568.31;5085759;28;20196;-77
2023/06/17 04:49:53;;;;;;;1.60;1.50;;;;;;;15.25;100.00;63573.50;5080982;28;20303;-79
2023/06/17 04:52:20;;;;;;;1.70;1.60;;;;;;;15.25;100.00;63574.03;5066371;28;20258;-76
2023/06/17 04:54:48;;;;;;;1.83;1.73;;;;;;;15.24;100.00;63572.47;5066522;28;20252;-81
2023/06/17 04:57:16;;;;;;;1.60;1.50;;;;;;;15.26;100.00;63577.63;5070183;28;20217;-78
2023/06/17 04:59:42;;;;;;;1.60;1.60;;;;;;;15.29;100.00;63575.09;5065508;28;20270;-76
2023/06/17 05:02:10;;;;;;;2.65;2.20;;;;;;;15.20;100.00;63568.84;5065269;28;20255;-75
2023/06/17 05:04:36;;;;;;;1.85;1.75;;;;;;;15.28;100.00;63574.56;5064748;28;20239;-76
2023/06/17 05:07:05;;;;;;;4.40;2.03;;;;;;;15.29;100.00;63580.22;5064818;28;20271;-77
2023/06/17 05:09:32;;;;;;;2.72;1.70;;;;;;;15.33;100.00;63582.34;5072469;28;20235;-76
2023/06/17 05:11:59;;;;;;;4.13;2.55;;;;;;;15.33;100.00;63579.78;5070909;28;20239;-79
2023/06/17 05:14:27;;;;;;;2.10;2.00;;;;;;;15.25;100.00;63571.47;5068463;28;20257;-79
2023/06/17 05:16:54;;;;;;;1.75;1.58;;;;;;;15.25;100.00;63576.59;5069519;28;20272;-81
2023/06/17 05:19:21;;;;;;;2.13;1.92;;;;;;;15.06;100.00;63551.72;5070423;28;20225;-78
2023/06/17 05:21:48;;;;;;;4.38;2.00;;;;;;;15.08;100.00;63558.94;5068826;28;20225;-78
2023/06/17 05:24:16;;;;;;;2.05;1.95;;;;;;;15.08;100.00;63556.88;5066345;28;20203;-79
2023/06/17 05:26:43;;;;;;;3.03;2.83;;;;;;;15.08;100.00;63562.00;5079942;28;20303;-78
2023/06/17 05:29:10;;;;;;;2.33;2.10;;;;;;;15.13;100.00;63561.03;5087939;28;20227;-81
2023/06/17 05:31:38;;;;;;;2.75;1.60;;;;;;;14.96;100.00;63541.34;5087642;28;20258;-77
2023/06/17 05:34:05;;;;;;;1.45;1.30;;;;;;;14.85;100.00;63529.91;5087429;28;20216;-77
2023/06/17 05:36:32;;;;;;;2.85;1.60;;;;;;;14.72;100.00;63521.53;5083638;28;20307;-77
2023/06/17 05:38:59;;;;;;;1.50;1.33;;;;;;;14.62;100.00;63508.56;5087286;28;20206;-77
2023/06/17 05:41:29;;;;;;;1.30;0.95;;;;;;;14.71;100.00;63515.88;5084590;28;20216;-78
2023/06/17 05:43:56;;;;;;;1.42;1.33;;;;;;;14.73;100.00;63520.00;5082045;28;20571;-77
2023/06/17 05:46:23;;;;;;;1.13;1.02;;;;;;;14.70;100.00;63519.44;5066565;28;20541;-77
2023/06/17 05:48:50;;;;;;;3.28;1.20;;;;;;;14.65;100.00;63517.31;5064355;28;20228;-77
2023/06/17 05:51:17;;;;;;;6.72;1.60;;;;;;;14.52;100.00;63498.19;5065156;28;20217;-78
2023/06/17 05:53:44;;;;;;;3.22;1.75;;;;;;;14.67;100.00;63518.88;5067391;28;20387;-77
2023/06/17 05:56:11;;;;;;;1.67;0.98;;;;;;;14.67;100.00;63518.88;5064344;28;20227;-75
2023/06/17 05:58:40;;;;;;;3.33;1.10;;;;;;;14.85;100.00;63530.41;5067674;28;20197;-76
2023/06/17 06:01:07;;;;;;;1.10;1.10;;;;;;;14.80;100.00;63527.78;5069521;28;20276;-77
2023/06/17 06:03:34;;;;;;;1.58;1.17;;;;;;;14.79;100.00;63528.78;5083492;28;20223;-76
2023/06/17 06:06:02;;;;;;;0.85;0.80;;;;;;;14.76;100.00;63520.53;5090466;28;20266;-77
2023/06/17 06:08:29;;;;;;;1.85;0.80;;;;;;;14.86;100.00;63533.50;5092745;28;20258;-77
2023/06/17 06:10:56;;;;;;;0.65;0.65;;;;;;;14.91;100.00;63538.69;5069387;28;20228;-78
2023/06/17 06:13:24;;;;;;;0.65;0.65;;;;;;;14.94;100.00;63544.38;5069685;28;20213;-78
2023/06/17 06:15:54;;;;;;;0.82;0.60;;;;;;;14.85;100.00;63535.56;5071065;28;20228;-79
2023/06/17 06:18:21;;;;;;;0.50;0.50;;;;;;;15.01;100.00;63547.03;5070905;28;20235;-77
2023/06/17 06:20:48;;;;;;;0.75;0.75;;;;;;;15.14;100.00;63567.72;5083320;28;20251;-77
2023/06/17 06:23:16;;;;;;;0.60;0.60;;;;;;;15.18;100.00;63568.78;5091043;28;20199;-78
2023/06/17 06:25:42;;;;;;;0.60;0.60;;;;;;;15.27;100.00;63575.59;5090737;28;20453;-78
2023/06/17 06:28:10;;;;;;;0.90;0.90;;;;;;;15.32;100.00;63583.34;5092232;28;20223;-79
2023/06/17 06:30:37;;;;;;;1.52;0.47;;;;;;;15.20;100.00;63568.31;5090036;28;20269;-77
2023/06/17 06:33:06;;;;;;;0.80;0.80;;;;;;;15.27;100.00;63573.53;5091789;28;20441;-79
2023/06/17 06:35:33;;;;;;;0.60;0.60;;;;;;;15.21;100.00;63571.91;5094029;28;20216;-78
2023/06/17 06:38:00;;;;;;;0.70;0.70;;;;;;;15.27;100.00;63573.53;5088557;28;20196;-79
2023/06/17 06:40:29;;;;;;;1.88;1.00;;;;;;;15.43;100.00;63589.69;5093770;28;20224;-78
2023/06/17 06:42:56;;;;;;;1.00;1.00;;;;;;;15.58;100.00;63608.34;5090893;28;20188;-78
2023/06/17 06:45:23;;;;;;;0.75;0.75;;;;;;;15.41;100.00;63590.16;5090782;28;20216;-78
2023/06/17 06:47:50;;;;;;;0.55;0.55;;;;;;;15.38;100.00;63590.09;5094108;28;20207;-81
2023/06/17 06:50:18;;;;;;;1.08;0.60;;;;;;;15.21;100.00;63566.78;5094363;28;20243;-77
2023/06/17 06:52:45;;;;;;;0.63;0.63;;;;;;;15.36;100.00;63584.94;5092197;28;20535;-77
2023/06/17 06:55:14;;;;;;;0.80;0.80;;;;;;;15.53;100.00;63602.63;5091242;28;20242;-81
2023/06/17 06:57:41;;;;;;;0.88;0.80;;;;;;;15.61;100.00;63614.03;5089547;28;20211;-80
2023/06/17 07:00:11;;;;;;;0.75;0.75;;;;;;;15.75;100.00;63628.59;5087338;28;20239;-79
2023/06/17 07:02:38;;;;;;;0.80;0.80;;;;;;;15.83;100.00;63631.25;5074790;28;20193;-82
2023/06/17 07:05:07;;;;;;;0.80;0.80;;;;;;;15.90;100.00;63641.63;5074340;28;20197;-78
2023/06/17 07:07:36;;;;;;;1.38;0.85;;;;;;;15.91;100.00;63644.72;5072512;28;20209;-79
2023/06/17 07:10:03;;;;;;;1.35;0.73;;;;;;;15.92;100.00;63651.41;5070262;28;20224;-79
2023/06/17 07:12:31;;;;;;;0.93;0.93;;;;;;;15.95;100.00;63643.72;5073854;28;20234;-76
2023/06/17 07:14:58;;;;;;;0.80;0.80;;;;;;;15.91;100.00;63642.13;5072501;28;20201;-79
2023/06/17 07:17:25;;;;;;;1.38;1.00;;;;;;;15.89;100.00;63642.63;5070338;28;20207;-78
2023/06/17 07:19:52;;;;;;;0.80;0.80;;;;;;;16.03;100.00;63657.69;5073872;28;20226;-78
2023/06/17 07:22:20;;;;;;;0.80;0.80;;;;;;;16.05;100.00;63656.69;5071686;28;20559;-78
2023/06/17 07:24:49;;;;;;;0.80;0.80;;;;;;;15.89;100.00;63640.06;5072281;28;20199;-79
2023/06/17 07:27:16;;;;;;;1.02;1.02;;;;;;;15.90;100.00;63643.66;5074787;28;20216;-77
2023/06/17 07:29:43;;;;;;;1.10;1.00;;;;;;;16.09;100.00;63660.84;5070408;28;20278;-78
2023/06/17 07:32:10;;;;;;;1.70;1.50;;;;;;;16.03;100.00;63657.19;5069769;28;20231;-79
2023/06/17 07:34:37;;;;;;;0.80;0.80;;;;;;;16.17;100.00;63674.31;5069253;28;20213;-78
2023/06/17 07:37:05;;;;;;;1.88;1.77;;;;;;;16.18;100.00;63673.31;5068420;28;20228;-77
2023/06/17 07:39:32;;;;;;;1.08;1.08;;;;;;;16.37;100.00;63692.53;5073185;28;20199;-78
2023/06/17 07:42:01;;;;;;;0.80;0.80;;;;;;;16.45;100.00;63695.19;5076887;28;20220;-76
2023/06/17 07:44:28;;;;;;;1.08;1.08;;;;;;;16.49;100.00;63701.97;5089477;28;20196;-79
2023/06/17 07:46:55;;;;;;;1.00;1.00;;;;;;;16.59;100.00;63710.31;5089146;28;20216;-79
2023/06/17 07:49:22;;;;;;;1.00;1.00;;;;;;;16.54;100.00;63704.59;5090978;28;20258;-78
2023/06/17 07:51:49;;;;;;;1.98;1.02;;;;;;;16.67;100.00;63723.25;5074820;28;20220;-78
2023/06/17 07:54:16;;;;;;;1.27;0.73;;;;;;;16.47;100.00;63702.44;5070656;28;20197;-78
2023/06/17 07:56:43;;;;;;;0.75;0.75;;;;;;;16.60;100.00;63711.34;5070448;28;20278;-77
2023/06/17 07:59:11;;;;;;;1.10;1.10;;;;;;;16.69;100.00;63723.28;5066994;28;20196;-77
2023/06/17 08:01:39;;;;;;;1.15;1.15;;;;;;;16.69;100.00;63725.31;5085539;28;20224;-76
2023/06/17 08:04:06;;;;;;;1.95;0.90;;;;;;;16.43;100.00;63695.69;5088485;28;20233;-78
2023/06/17 08:06:33;;;;;;;1.63;0.93;;;;;;;16.45;100.00;63698.28;5091082;28;20215;-77
2023/06/17 08:09:01;;;;;;;0.80;0.80;;;;;;;16.02;100.00;63654.09;5085234;28;20232;-79
2023/06/17 08:11:28;;;;;;;0.98;0.98;;;;;;;16.08;100.00;63657.75;5073149;28;20228;-79
2023/06/17 08:13:55;;;;;;;2.55;1.85;;;;;;;16.17;100.00;63666.59;5068039;28;20192;-77
2023/06/17 08:16:24;;;;;;;0.90;0.90;;;;;;;16.18;100.00;63670.22;5069685;28;20216;-77
2023/06/17 08:18:52;;;;;;;2.03;0.80;;;;;;;16.09;100.00;63666.50;5079211;28;20199;-80
2023/06/17 08:21:19;;;;;;;1.05;1.05;;;;;;;16.12;100.00;63661.41;5093041;28;20244;-78
2023/06/17 08:23:47;;;;;;;1.17;1.08;;;;;;;15.89;100.00;63645.19;5089429;28;20196;-81
2023/06/17 08:26:14;;;;;;;1.23;1.00;;;;;;;16.12;100.00;63664.50;5090520;28;20261;-80
2023/06/17 08:28:41;;;;;;;0.90;0.90;;;;;;;16.20;100.00;63675.38;5069824;28;20197;-80
2023/06/17 08:31:08;;;;;;;1.20;1.10;;;;;;;16.34;100.00;63686.34;5071506;28;20216;-76
2023/06/17 08:33:37;;;;;;;1.75;1.40;;;;;;;16.32;100.00;63684.25;5071110;28;20253;-77
2023/06/17 08:36:05;;;;;;;0.80;0.80;;;;;;;16.39;100.00;63689.50;5070437;28;20225;-79
2023/06/17 08:38:33;;;;;;;1.92;1.13;;;;;;;16.40;100.00;63693.09;5069314;28;20429;-79
2023/06/17 08:41:00;;;;;;;1.08;1.08;;;;;;;16.44;100.00;63697.25;5069624;28;20223;-79
2023/06/17 08:43:29;;;;;;;1.02;1.02;;;;;;;16.32;100.00;63681.69;5070058;28;20197;-79
2023/06/17 08:45:58;;;;;;;1.35;1.25;;;;;;;16.06;100.00;63657.72;5068906;28;20220;-78
2023/06/17 08:48:26;;;;;;;1.35;1.35;;;;;;;16.17;100.00;63669.69;5070925;28;20196;-78
2023/06/17 08:50:55;;;;;;;1.65;1.50;;;;;;;16.26;100.00;63678.53;5072317;28;20282;-79
2023/06/17 08:53:24;;;;;;;1.55;1.00;;;;;;;16.31;100.00;63683.72;5080317;28;20196;-77
2023/06/17 08:55:51;;;;;;;1.50;1.40;;;;;;;16.30;100.00;63682.16;5068649;28;20221;-78
2023/06/17 08:58:20;;;;;;;1.27;1.27;;;;;;;16.36;100.00;63688.94;5069674;28;20193;-80
2023/06/17 09:00:47;;;;;;;1.00;1.00;;;;;;;16.30;100.00;63679.59;5088941;28;20215;-78
2023/06/17 09:03:19;;;;;;;1.38;1.27;;;;;;;16.33;100.00;63693.53;5085356;28;20196;-80
2023/06/17 09:05:46;;;;;;;1.58;1.48;;;;;;;16.39;100.00;63692.06;5069638;28;20309;-81
2023/06/17 09:08:14;;;;;;;2.45;1.40;;;;;;;16.43;100.00;63693.13;5069169;28;20200;-79
2023/06/17 09:10:45;;;;;;;2.08;1.35;;;;;;;16.01;100.00;63652.53;5080393;28;20275;-79
2023/06/17 09:13:12;;;;;;;1.75;1.65;;;;;;;16.17;100.00;63669.69;5088903;28;20234;-77
2023/06/17 09:15:44;;;;;;;1.27;1.27;;;;;;;16.09;100.00;63666.50;5091309;28;20238;-79
2023/06/17 09:18:11;;;;;;;1.60;1.50;;;;;;;16.04;100.00;63658.75;5088579;28;20249;-77
2023/06/17 09:20:38;;;;;;;1.42;1.42;;;;;;;16.23;100.00;63674.88;5087822;28;20215;-77
2023/06/17 09:23:05;;;;;;;1.58;1.50;;;;;;;16.62;100.00;63721.13;5067302;28;20213;-76
2023/06/17 09:25:36;;;;;;;2.50;1.33;;;;;;;16.88;100.00;63739.97;5069781;28;20523;-79
2023/06/17 09:28:03;;;;;;;1.85;1.33;;;;;;;16.70;100.00;63721.75;5068250;28;20192;-80
2023/06/17 09:30:30;;;;;;;1.33;1.33;;;;;;;16.82;100.00;63741.97;5069572;28;20236;-79
2023/06/17 09:32:57;;;;;;;1.67;1.60;;;;;;;16.89;100.00;63743.59;5071693;28;20200;-78
2023/06/17 09:35:25;;;;;;;1.52;1.50;;;;;;;16.92;100.00;63744.66;5071395;28;20220;-81
2023/06/17 09:37:53;;;;;;;1.60;1.50;;;;;;;17.05;100.00;63760.25;5072496;28;20211;-78
2023/06/17 09:40:20;;;;;;;1.58;1.55;;;;;;;17.05;100.00;63758.19;5084846;28;20242;-76
2023/06/17 09:42:50;;;;;;;3.22;1.45;;;;;;;16.91;100.00;63748.75;5091376;28;20206;-78
2023/06/17 09:45:23;;;;;;;1.63;1.52;;;;;;;16.74;100.00;63728.47;5094172;28;20220;-76
2023/06/17 09:47:54;;;;;;;1.80;1.70;;;;;;;16.56;100.00;63709.25;5087457;28;20504;-77
2023/06/17 09:50:23;;;;;;;1.75;1.70;;;;;;;16.58;100.00;63711.31;5091538;28;20235;-77
2023/06/17 09:52:55;;;;;;;1.40;1.40;;;;;;;16.74;100.00;63733.63;5091157;28;20256;-77
2023/06/17 09:55:23;;;;;;;1.60;1.60;;;;;;;16.85;100.00;63737.38;5090368;28;20235;-77
2023/06/17 09:57:53;;;;;;;1.80;1.70;;;;;;;16.88;100.00;63745.09;5083581;28;20239;-77
2023/06/17 10:00:25;;;;;;;1.40;1.40;;;;;;;17.01;100.00;63753.50;5069231;28;20236;-77
2023/06/17 10:02:53;;;;;;;1.20;1.20;;;;;;;17.07;100.00;63765.41;5069318;28;20208;-78
2023/06/17 10:05:23;;;;;;;1.30;1.30;;;;;;;17.31;100.00;63789.84;5067019;28;20220;-77
2023/06/17 10:07:53;;;;;;;0.95;0.90;;;;;;;17.57;100.00;63816.97;5069131;28;20208;-76
2023/06/17 10:10:23;;;;;;;0.80;0.80;;;;;;;17.41;100.00;63799.75;5084470;28;20238;-76
2023/06/17 10:12:54;;;;;;;1.30;1.30;;;;;;;17.62;100.00;63819.59;5091290;28;20200;-76
2023/06/17 10:15:23;;;;;;;1.10;1.10;;;;;;;17.57;100.00;63814.38;5086936;28;20282;-78
2023/06/17 10:17:53;;;;;;;3.15;1.08;;;;;;;17.62;100.00;63819.06;5068340;28;20387;-76
2023/06/17 10:20:22;;;;;;;1.00;1.00;;;;;;;17.65;100.00;63822.72;5068239;28;20263;-77
2023/06/17 10:22:54;;;;;;;1.10;1.02;;;;;;;17.64;100.00;63821.16;5069689;28;20222;-75
2023/06/17 10:25:24;;;;;;;0.80;0.80;;;;;;;17.61;100.00;63815.44;5068668;28;20276;-75
2023/06/17 10:27:52;;;;;;;0.88;0.88;;;;;;;17.61;100.00;63818.03;5069669;28;20188;-75
2023/06/17 10:30:26;;;;;;;0.93;0.82;;;;;;;17.57;100.00;63813.88;5068443;28;20302;-74
2023/06/17 10:32:55;;;;;;;0.60;0.60;;;;;;;17.55;100.00;63811.78;5067797;28;20215;-75
2023/06/17 10:35:22;;;;;;;0.88;0.88;;;;;;;17.66;100.00;63831.47;5087917;28;20243;-75
2023/06/17 10:37:49;;;;;;;0.65;0.65;;;;;;;17.75;100.00;63832.59;5089014;28;20420;-75
2023/06/17 10:40:21;;;;;;;1.13;1.02;;;;;;;17.86;100.00;63851.81;5088609;28;20242;-76
2023/06/17 10:42:58;;;;;;;0.68;0.68;;;;;;;17.97;100.00;63852.94;5090175;28;20199;-74
2023/06/17 10:45:25;;;;;;;0.80;0.80;;;;;;;17.79;100.00;63842.44;5086409;28;20253;-74
2023/06/17 10:47:52;;;;;;;0.88;0.82;;;;;;;17.68;100.00;63825.31;5086792;28;20194;-75
2023/06/17 10:50:22;;;;;;;1.85;0.88;;;;;;;17.55;100.00;63816.94;5089149;28;20571;-76
2023/06/17 10:52:56;;;;;;;0.50;0.50;;;;;;;17.47;100.00;63806.03;5085643;28;20212;-73
2023/06/17 10:55:23;;;;;;;0.98;0.93;;;;;;;17.52;100.00;63811.22;5089877;28;20389;-76
2023/06/17 10:57:52;;;;;;;3.05;1.08;;;;;;;17.34;100.00;63790.44;5087766;28;20196;-75
2023/06/17 11:00:21;;;;;;;1.10;1.10;;;;;;;17.27;100.00;63783.66;5084782;28;20266;-77
2023/06/17 11:02:48;;;;;;;0.90;0.90;;;;;;;16.97;100.00;63752.44;5069911;28;20261;-74
2023/06/17 11:05:16;;;;;;;1.15;1.13;;;;;;;16.91;100.00;63746.16;5067751;28;20230;-76
2023/06/17 11:07:45;;;;;;;3.53;1.60;;;;;;;16.78;100.00;63737.28;5070217;28;20193;-75
2023/06/17 11:10:13;;;;;;;1.65;1.55;;;;;;;16.75;100.00;63734.16;5082275;28;20288;-75
2023/06/17 11:12:42;;;;;;;2.42;2.22;;;;;;;16.65;100.00;63718.59;5089095;28;20191;-78
2023/06/17 11:15:09;;;;;;;2.30;2.20;;;;;;;16.63;100.00;63717.06;5091190;28;20204;-77
2023/06/17 11:17:39;;;;;;;2.08;1.98;;;;;;;16.37;100.00;63684.84;5090468;28;20196;-77
2023/06/17 11:20:08;;;;;;;2.38;2.28;;;;;;;16.18;100.00;63670.22;5087757;28;20200;-80
2023/06/17 11:22:38;;;;;;;2.38;2.28;;;;;;;16.19;100.00;63671.25;5091379;28;20192;-77
2023/06/17 11:25:06;;;;;;;2.40;2.30;;;;;;;16.11;100.00;63665.50;5090024;28;20344;-78
2023/06/17 11:27:34;;;;;;;3.28;2.97;;;;;;;16.02;100.00;63653.56;5086565;28;20220;-77